• Join FlightAware (Why Join?)
  • Login
  • US Flag 
07:30AM EDT


 

Airport Tracker/Info


-or-


 

Live Flight TrackerFlight Track Log ✈ N4887J ✈ 30-Apr-2012 ✈ KEYE - KSUS

Flight Track Log - Related Links

Times and Time Zones

All times are in EDT time to prevent confusion due to time zone crossing. See the N4887J flight status page for this flight to view local times or setup timezone preferences in your user account.

Time Position Orientation Groundspeed Altitude Reporting Facility
EDT Latitude Longitude Course Direction KTS MPH feet Rate Location/Type
01:47PM 39.8000 -86.3667 270° West 128 147 2,600  Level Indianapolis TRACON
01:48PM 39.8000 -86.4333 270° West 126 145 3,700 840 Climbing Indianapolis TRACON
01:49PM 39.8000 -86.4500 237° Southwest 105 121 4,500 840 Climbing Indianapolis TRACON
01:50PM 39.7833 -86.4833 270° West 100 115 5,300 720 Climbing Indianapolis TRACON
01:51PM 39.7833 -86.5333 218° Southwest 99 114 6,000 660 Climbing Indianapolis TRACON
01:52PM 39.7667 -86.5500 270° West 101 116 6,600 660 Climbing Indianapolis TRACON
01:53PM 39.7667 -86.5833 270° West 101 116 7,300 660 Climbing Indianapolis TRACON
01:54PM 39.7667 -86.6333 237° Southwest 101 116 8,000 300 Climbing Indianapolis TRACON
01:55PM 39.7500 -86.6667 252° West 117 135 8,000  Level Indianapolis TRACON
02:21PM 39.4619 -87.8006 267° West 139 160 8,100  Climbing Kansas City Center
02:22PM 39.4603 -87.8464 261° West 134 154 8,100  Level Kansas City Center
02:23PM 39.4544 -87.8928 247° West 129 148 8,100  Level Kansas City Center
02:24PM 39.4403 -87.9369 249° West 134 154 8,100  Level Kansas City Center
02:25PM 39.4281 -87.9783 264° West 134 154 8,100 -60 Level Kansas City Center
02:26PM 39.4242 -88.0244 269° West 127 146 8,000 -120 Descending Kansas City Center
03:04PM 39.4003 -89.5650 228° Southwest 139 160 5,400 -120 Descending FAA TRACON SMA TRACON (SMA)
03:05PM 39.3903 -89.5792 227° Southwest 138 159 5,200 -300 Descending FAA TRACON SMA TRACON (SMA)
03:05PM 39.3667 -89.6117 231° Southwest 135 155 5,000 -180 Descending FAA TRACON SMA TRACON (SMA)
03:06PM 39.3511 -89.6367 225° Southwest 127 146 5,000  Level FAA TRACON SMA TRACON (SMA)
03:07PM 39.3358 -89.6567 222° Southwest 128 147 5,000  Level FAA TRACON SMA TRACON (SMA)
03:07PM 39.3172 -89.6781 222° Southwest 129 148 5,000  Level FAA TRACON SMA TRACON (SMA)
03:08PM 39.2983 -89.7000 216° Southwest 130 150 5,000  Level FAA TRACON SMA TRACON (SMA)
03:09PM 39.2803 -89.7172 217° Southwest 134 154 5,000  Level FAA TRACON SMA TRACON (SMA)
03:09PM 39.2600 -89.7372 225° Southwest 134 154 5,000  Level FAA TRACON SMA TRACON (SMA)
03:10PM 39.2419 -89.7603 222° Southwest 133 153 5,000  Level FAA TRACON SMA TRACON (SMA)
03:11PM 39.2250 -89.7800 220° Southwest 134 154 5,000 -360 Level FAA TRACON SMA TRACON (SMA)
03:11PM 39.2042 -89.8025 219° Southwest 143 165 4,600 -600 Descending FAA TRACON SMA TRACON (SMA)
03:12PM 39.1817 -89.8258 39° Northeast 150 173 4,200 -600 Descending FAA TRACON SMA TRACON (SMA)
03:20PM 39.4234 -89.5747 229° Southwest  Level FlightAware Approximate
03:21PM 39.3951 -89.6160 229° Southwest  Level FlightAware Approximate
03:22PM 39.3668 -89.6574 228° Southwest  Level FlightAware Approximate
03:23PM 39.3386 -89.6987 228° Southwest  Level FlightAware Approximate
03:24PM 39.3102 -89.7400 228° Southwest  Level FlightAware Approximate
03:25PM 39.2819 -89.7812 228° Southwest  Level FlightAware Approximate
03:26PM 39.2536 -89.8224 280° West  Level FlightAware Approximate
03:27PM 39.2600 -89.8710 226° Southwest  Level FlightAware Approximate
03:28PM 39.2304 -89.9108 226° Southwest  Level FlightAware Approximate
03:29PM 39.2009 -89.9505 226° Southwest  Level FlightAware Approximate
03:30PM 39.1714 -89.9902 226° Southwest  Level FlightAware Approximate
03:31PM 39.1418 -90.0299 226° Southwest  Level FlightAware Approximate
03:32PM 39.1122 -90.0695 226° Southwest  Level FlightAware Approximate
03:33PM 39.0826 -90.1092 226° Southwest  Level FlightAware Approximate
03:34PM 39.0530 -90.1487 226° Southwest  Level FlightAware Approximate
03:35PM 39.0234 -90.1883 226° Southwest  Level FlightAware Approximate
03:36PM 38.9938 -90.2278 226° Southwest  Level FlightAware Approximate
03:37PM 38.9641 -90.2672 226° Southwest  Level FlightAware Approximate
03:38PM 38.9344 -90.3067 226° Southwest  Level FlightAware Approximate
03:39PM 38.9048 -90.3461 226° Southwest  Level FlightAware Approximate
03:40PM 38.8751 -90.3855 226° Southwest  Level FlightAware Approximate
03:41PM 38.8454 -90.4248 226° Southwest  Level FlightAware Approximate
03:42PM 38.8157 -90.4641 226° Southwest  Level FlightAware Approximate
03:43PM 38.7860 -90.5034 226° Southwest  Level FlightAware Approximate
03:44PM 38.7562 -90.5426 226° Southwest  Level FlightAware Approximate
03:45PM 38.7265 -90.5818 224° Southwest  Level FlightAware Approximate
03:46PM 38.6958 -90.6195 217° Southwest  Level FlightAware Approximate
03:47PM 38.6618 -90.6524 217° Southwest  Level Estimated